Time;durP1;ratioP1;P1;durP2;ratioP2;P2;SDS_P1;SDS_P2;PMS_P1;PMS_P2;Temp;Humidity;BMP_temperature;BMP_pressure;BME280_temperature;BME280_humidity;BME280_pressure;Samples;Min_cycle;Max_cycle;Signal;HPM_P1;HPM_P2
2023/01/20 00:29:53;;;;;;;;;;;;;;;;;;;;;
2023/01/20 00:35:59;;;;;;;6.80;2.13;;;0.10;99.90;;;;;;5003100;28;20165;-91
2023/01/20 00:38:51;;;;;;;6.80;2.50;;;0.10;99.90;;;;;;5012385;28;20026;-91
2023/01/20 00:42:27;;;;;;;5.90;2.37;;;0.10;99.90;;;;;;5031419;28;20090;-92
2023/01/20 03:37:59;;;;;;;10.03;3.43;;;-0.30;99.90;;;;;;5001350;28;20041;-88
2023/01/20 03:40:52;;;;;;;4.23;2.00;;;-0.20;99.90;;;;;;5020139;28;20034;-89
2023/01/20 03:43:35;;;;;;;7.60;2.87;;;-0.30;99.90;;;;;;5028677;23;20054;-91
2023/01/20 03:46:18;;;;;;;6.23;3.00;;;-0.20;99.90;;;;;;5000097;28;20076;-90
2023/01/20 03:49:27;;;;;;;8.37;2.70;;;-0.30;99.90;;;;;;5000401;28;20462;-92
2023/01/20 03:52:19;;;;;;;8.70;2.60;;;-0.20;99.90;;;;;;4967165;28;20034;-91
2023/01/20 03:55:10;;;;;;;6.93;2.80;;;-0.20;99.90;;;;;;5001438;28;20021;-91
2023/01/20 03:57:42;;;;;;;8.03;2.83;;;-0.20;99.90;;;;;;4981501;28;20026;-91
2023/01/20 04:00:09;;;;;;;10.05;2.88;;;-0.20;99.90;;;;;;4997385;28;20017;-91
2023/01/20 04:02:37;;;;;;;6.43;2.63;;;-0.20;99.90;;;;;;4999802;28;20154;-92
2023/01/20 04:05:05;;;;;;;7.27;3.30;;;-0.20;99.90;;;;;;5000039;28;20027;-89
2023/01/20 04:07:32;;;;;;;5.20;2.30;;;-0.30;99.90;;;;;;4999292;28;20033;-91
2023/01/20 04:10:05;;;;;;;6.10;2.57;;;-0.30;99.90;;;;;;4998594;28;20019;-91
2023/01/20 04:12:31;;;;;;;8.80;2.60;;;-0.30;99.90;;;;;;4992698;28;20034;-91
2023/01/20 04:14:56;;;;;;;7.20;2.97;;;-0.30;99.90;;;;;;4991284;28;20030;-91
2023/01/20 04:17:29;;;;;;;9.47;2.57;;;-0.30;99.90;;;;;;4996984;28;20430;-90
2023/01/20 04:19:56;;;;;;;8.03;2.40;;;-0.30;99.90;;;;;;4999180;28;20105;-92
2023/01/20 04:22:33;;;;;;;4.37;1.70;;;-0.30;99.90;;;;;;4996652;28;20019;-91
2023/01/20 04:25:12;;;;;;;7.07;2.73;;;-0.30;99.90;;;;;;4997085;28;20053;-91
2023/01/20 04:27:37;;;;;;;4.47;2.03;;;-0.40;99.90;;;;;;4996438;28;20025;-92
2023/01/20 04:30:03;;;;;;;5.07;2.03;;;-0.40;99.90;;;;;;4998158;28;20481;-89
2023/01/20 04:32:29;;;;;;;6.17;2.13;;;-0.40;99.90;;;;;;4996075;28;20113;-91
2023/01/20 04:34:54;;;;;;;6.50;2.40;;;-0.40;99.90;;;;;;4996251;28;20033;-92
2023/01/20 04:37:20;;;;;;;7.23;2.37;;;-0.40;99.90;;;;;;4997156;28;20034;-91
2023/01/20 04:39:45;;;;;;;5.47;2.10;;;-0.30;99.90;;;;;;4996479;28;20113;-91
2023/01/20 04:42:11;;;;;;;5.90;1.93;;;-0.40;99.90;;;;;;4990286;28;20498;-91
2023/01/20 04:44:37;;;;;;;5.40;2.03;;;-0.40;99.90;;;;;;4997541;28;20061;-91
2023/01/20 04:47:03;;;;;;;4.83;1.67;;;-0.40;99.90;;;;;;4999359;28;20109;-91
2023/01/20 04:49:28;;;;;;;4.77;2.00;;;-0.40;99.90;;;;;;4994119;28;20014;-91
2023/01/20 04:51:54;;;;;;;6.13;2.53;;;-0.40;99.90;;;;;;4999344;28;20032;-91
2023/01/20 04:54:20;;;;;;;6.13;2.03;;;-0.40;99.90;;;;;;4999337;28;20030;-91
2023/01/20 04:56:47;;;;;;;6.10;2.20;;;-0.40;99.90;;;;;;4999623;28;20029;-91
2023/01/20 04:59:13;;;;;;;5.90;2.33;;;-0.40;99.90;;;;;;5001802;28;20041;-91
2023/01/20 05:01:39;;;;;;;6.43;2.07;;;-0.40;99.90;;;;;;4998759;28;20030;-91
2023/01/20 05:04:04;;;;;;;8.10;2.20;;;-0.40;99.90;;;;;;4998611;28;20406;-90
2023/01/20 05:06:31;;;;;;;6.67;1.73;;;-0.40;99.90;;;;;;5001352;28;20446;-91
2023/01/20 05:08:56;;;;;;;6.13;2.23;;;-0.40;99.90;;;;;;4999322;28;20026;-90
2023/01/20 05:11:22;;;;;;;5.87;2.20;;;-0.40;99.90;;;;;;4998811;28;20163;-90
2023/01/20 05:13:48;;;;;;;6.87;2.20;;;-0.30;99.90;;;;;;4988533;28;20049;-91
2023/01/20 05:16:13;;;;;;;8.83;2.37;;;-0.30;99.90;;;;;;4986545;28;20042;-91
2023/01/20 05:18:39;;;;;;;8.07;2.03;;;-0.30;99.90;;;;;;4986071;28;20022;-92
2023/01/20 05:21:07;;;;;;;5.97;2.20;;;-0.30;99.90;;;;;;4993006;28;20034;-91
2023/01/20 05:23:33;;;;;;;4.40;1.63;;;-0.40;99.90;;;;;;4994035;28;20029;-91
2023/01/20 05:25:58;;;;;;;7.80;2.57;;;-0.30;99.90;;;;;;4996209;28;20026;-91
2023/01/20 05:28:24;;;;;;;5.23;1.83;;;-0.40;99.90;;;;;;4990809;28;20019;-91
2023/01/20 05:30:50;;;;;;;4.30;1.83;;;-0.30;99.90;;;;;;5000021;28;20483;-92
2023/01/20 05:33:16;;;;;;;5.87;2.43;;;-0.40;99.90;;;;;;4994514;28;20026;-91
2023/01/20 05:35:42;;;;;;;6.67;2.30;;;-0.40;99.90;;;;;;4995094;28;20018;-91
2023/01/20 05:38:07;;;;;;;6.33;2.23;;;-0.30;99.90;;;;;;4992147;28;20303;-91
2023/01/20 05:40:33;;;;;;;4.20;1.90;;;-0.30;99.90;;;;;;4995362;28;20084;-90
2023/01/20 05:43:02;;;;;;;5.90;2.40;;;-0.30;99.90;;;;;;4994123;28;20046;-91
2023/01/20 05:45:29;;;;;;;7.67;2.33;;;-0.30;99.90;;;;;;4986995;28;20085;-91
2023/01/20 05:47:58;;;;;;;4.60;1.83;;;-0.30;99.90;;;;;;4995119;28;20209;-91
2023/01/20 05:50:27;;;;;;;6.50;2.60;;;-0.30;99.90;;;;;;4996027;28;20034;-92
2023/01/20 05:52:53;;;;;;;6.67;2.23;;;-0.30;99.90;;;;;;4995080;28;20050;-91
2023/01/20 05:55:20;;;;;;;5.13;2.20;;;-0.30;99.90;;;;;;4993218;28;20039;-90
2023/01/20 05:57:45;;;;;;;9.67;2.87;;;-0.30;99.90;;;;;;4994939;28;20045;-92
2023/01/20 06:00:12;;;;;;;8.73;2.67;;;-0.30;99.90;;;;;;4995219;28;20475;-91
2023/01/20 06:02:40;;;;;;;6.43;1.97;;;-0.30;99.90;;;;;;4998788;28;20023;-91
2023/01/20 06:05:06;;;;;;;6.07;2.17;;;-0.20;99.90;;;;;;4994595;28;20038;-92
2023/01/20 06:07:32;;;;;;;6.53;2.07;;;-0.30;99.90;;;;;;4996542;28;20050;-91
2023/01/20 06:09:57;;;;;;;7.57;3.07;;;-0.40;99.90;;;;;;4995833;28;20549;-91
2023/01/20 06:12:23;;;;;;;6.40;2.17;;;-0.50;99.90;;;;;;4996379;28;20062;-90
2023/01/20 06:14:49;;;;;;;4.93;2.17;;;-0.50;99.90;;;;;;4995077;28;20054;-92
2023/01/20 06:17:15;;;;;;;7.40;2.63;;;-0.50;99.90;;;;;;4987847;28;20034;-91
2023/01/20 06:19:41;;;;;;;6.40;2.23;;;-0.50;99.90;;;;;;4994950;28;20019;-91
2023/01/20 06:22:09;;;;;;;6.30;2.73;;;-0.60;99.90;;;;;;4994894;28;20026;-89
2023/01/20 06:24:34;;;;;;;6.10;2.17;;;-0.50;99.90;;;;;;4992147;28;20103;-91
2023/01/20 06:27:02;;;;;;;5.37;2.23;;;-0.50;99.90;;;;;;4989892;28;20022;-89
2023/01/20 06:29:29;;;;;;;5.67;2.30;;;-0.60;99.90;;;;;;4988369;28;20038;-87
2023/01/20 06:31:55;;;;;;;7.07;2.47;;;-0.50;99.90;;;;;;4991392;28;20034;-89
2023/01/20 06:34:22;;;;;;;5.60;2.30;;;-0.50;99.90;;;;;;4990048;28;20529;-89
2023/01/20 06:36:47;;;;;;;7.00;2.30;;;-0.50;99.90;;;;;;4992341;28;20011;-89
2023/01/20 06:39:13;;;;;;;7.67;2.43;;;-0.50;99.90;;;;;;4999253;28;20026;-89
2023/01/20 06:41:38;;;;;;;6.93;2.23;;;-0.50;99.90;;;;;;5008520;28;20081;-89
2023/01/20 06:44:04;;;;;;;6.43;2.47;;;-0.60;99.90;;;;;;4999808;28;20042;-89
2023/01/20 06:46:30;;;;;;;4.63;2.17;;;-0.50;99.90;;;;;;4989989;28;20041;-89
2023/01/20 06:48:59;;;;;;;5.87;1.83;;;-0.50;99.90;;;;;;4989590;28;20027;-89
2023/01/20 06:51:26;;;;;;;7.13;2.37;;;-0.50;99.90;;;;;;4991393;28;20080;-88
2023/01/20 06:53:52;;;;;;;6.97;2.47;;;-0.50;99.90;;;;;;4983672;28;20037;-89
2023/01/20 06:56:18;;;;;;;6.97;2.83;;;-0.50;99.90;;;;;;4992073;28;20030;-89
2023/01/20 06:58:44;;;;;;;6.73;2.30;;;-0.50;99.90;;;;;;4996031;28;20031;-89
2023/01/20 07:01:12;;;;;;;6.37;2.77;;;-0.50;99.90;;;;;;4990363;28;20034;-89
2023/01/20 07:03:40;;;;;;;5.73;2.23;;;-0.50;99.90;;;;;;4990485;28;20077;-88
2023/01/20 07:06:20;;;;;;;7.23;2.23;;;-0.40;99.90;;;;;;5006658;28;20047;-90
2023/01/20 07:08:46;;;;;;;7.40;2.30;;;-0.40;99.90;;;;;;4996223;28;20030;-89
2023/01/20 07:11:12;;;;;;;6.27;2.20;;;-0.40;99.90;;;;;;4997343;28;20022;-88
2023/01/20 07:13:37;;;;;;;4.50;1.80;;;-0.40;99.90;;;;;;5000107;28;20023;-89
2023/01/20 07:16:03;;;;;;;7.87;2.77;;;-0.40;99.90;;;;;;4995632;28;20034;-89
2023/01/20 07:18:29;;;;;;;6.47;2.70;;;-0.30;99.90;;;;;;4995843;28;20030;-90
2023/01/20 07:20:55;;;;;;;7.77;2.50;;;-0.30;99.90;;;;;;4993708;28;20716;-90
2023/01/20 07:23:22;;;;;;;7.80;2.53;;;-0.30;99.90;;;;;;4991276;28;20774;-90
2023/01/20 07:25:56;;;;;;;7.97;2.83;;;-0.20;99.90;;;;;;4981359;28;20463;-89
2023/01/20 07:28:22;;;;;;;5.57;2.10;;;-0.20;99.90;;;;;;4991426;28;20521;-91
2023/01/20 07:30:47;;;;;;;6.50;2.50;;;-0.20;99.90;;;;;;4997336;28;20019;-90
2023/01/20 07:33:13;;;;;;;9.83;3.47;;;-0.20;99.90;;;;;;4994828;28;20473;-89
2023/01/20 07:35:38;;;;;;;5.53;2.23;;;-0.20;99.90;;;;;;4997197;28;20103;-90
2023/01/20 07:38:04;;;;;;;7.23;2.57;;;-0.20;99.90;;;;;;4996613;28;20030;-89
2023/01/20 07:40:30;;;;;;;7.07;2.40;;;-0.20;99.90;;;;;;4997536;28;20491;-89
2023/01/20 07:42:58;;;;;;;6.03;2.30;;;-0.20;99.90;;;;;;4994429;28;20037;-90
2023/01/20 07:45:23;;;;;;;6.50;2.40;;;-0.20;99.90;;;;;;4993525;28;20116;-90
2023/01/20 07:47:49;;;;;;;6.77;2.30;;;-0.20;99.90;;;;;;4998406;28;20033;-90
2023/01/20 07:50:15;;;;;;;6.27;2.30;;;-0.20;99.90;;;;;;4996193;28;20030;-90
2023/01/20 07:52:41;;;;;;;5.47;2.10;;;-0.10;99.90;;;;;;4994745;28;20026;-90
2023/01/20 07:55:07;;;;;;;5.83;2.50;;;-0.20;99.90;;;;;;4995703;28;20430;-89
2023/01/20 07:57:33;;;;;;;5.17;2.37;;;-0.10;99.90;;;;;;4995211;28;20022;-90
2023/01/20 07:59:58;;;;;;;4.83;2.00;;;-0.10;99.90;;;;;;4994982;28;20034;-90
2023/01/20 08:02:24;;;;;;;6.27;2.50;;;0.00;99.90;;;;;;4993153;28;20030;-91
2023/01/20 08:04:49;;;;;;;6.73;2.23;;;0.00;99.90;;;;;;4996438;28;20025;-91
2023/01/20 08:07:15;;;;;;;8.67;3.20;;;0.10;99.90;;;;;;4995889;28;20427;-91
2023/01/20 08:09:42;;;;;;;5.57;2.47;;;0.20;99.90;;;;;;4996384;28;20045;-91
2023/01/20 08:12:08;;;;;;;5.53;2.13;;;0.20;99.90;;;;;;4992075;28;20033;-92
2023/01/20 08:14:34;;;;;;;10.87;3.20;;;0.30;99.90;;;;;;4993669;28;20484;-91
2023/01/20 08:16:59;;;;;;;7.50;2.53;;;0.40;99.90;;;;;;4995890;28;20033;-91
2023/01/20 08:19:29;;;;;;;6.53;2.37;;;0.40;99.90;;;;;;4993254;28;20041;-90
2023/01/20 08:21:55;;;;;;;5.53;2.37;;;0.50;99.90;;;;;;4987621;28;20085;-91
2023/01/20 08:24:59;;;;;;;7.43;2.50;;;0.50;99.90;;;;;;5002770;28;20017;-91
2023/01/20 08:27:24;;;;;;;9.50;2.70;;;0.70;99.90;;;;;;4991690;28;20038;-91
2023/01/20 08:29:53;;;;;;;8.80;2.33;;;0.60;99.90;;;;;;4997396;28;20023;-91
2023/01/20 08:32:19;;;;;;;5.63;2.07;;;0.60;99.90;;;;;;4993934;28;20033;-91
2023/01/20 08:34:45;;;;;;;6.90;2.50;;;0.60;99.90;;;;;;5003300;28;20030;-91
2023/01/20 08:37:10;;;;;;;5.30;2.10;;;0.50;99.90;;;;;;4994480;28;20061;-90
2023/01/20 08:39:36;;;;;;;6.03;2.30;;;0.50;99.90;;;;;;4993470;28;20033;-91
2023/01/20 08:42:02;;;;;;;7.70;2.47;;;0.50;99.90;;;;;;4992189;28;20458;-91
2023/01/20 08:44:28;;;;;;;8.27;2.67;;;0.40;99.90;;;;;;4994941;28;20065;-91
2023/01/20 08:46:58;;;;;;;4.20;1.90;;;0.40;99.90;;;;;;4989167;28;20022;-91
2023/01/20 08:49:24;;;;;;;6.30;2.73;;;0.40;99.90;;;;;;4992558;28;20026;-90
2023/01/20 08:51:50;;;;;;;6.27;2.20;;;0.50;99.90;;;;;;4998310;28;20398;-91
2023/01/20 08:54:16;;;;;;;5.33;2.63;;;0.50;99.90;;;;;;4992149;28;20113;-91
2023/01/20 08:56:42;;;;;;;6.87;2.33;;;0.60;99.90;;;;;;4991990;28;20077;-91
2023/01/20 08:59:10;;;;;;;6.80;2.57;;;0.60;99.90;;;;;;4997167;28;20026;-91
2023/01/20 09:01:36;;;;;;;5.97;2.63;;;0.60;99.90;;;;;;4990739;28;20022;-91
2023/01/20 09:04:04;;;;;;;6.83;2.37;;;0.70;99.90;;;;;;4995413;28;20368;-91
2023/01/20 09:06:30;;;;;;;8.77;2.90;;;0.70;99.90;;;;;;5009633;28;20015;-92
2023/01/20 09:08:55;;;;;;;7.43;2.33;;;0.80;99.90;;;;;;4997135;28;20109;-90
2023/01/20 09:11:23;;;;;;;6.27;2.63;;;0.90;99.90;;;;;;4996209;28;20327;-91
2023/01/20 09:13:49;;;;;;;5.40;2.13;;;0.80;99.90;;;;;;4989037;28;20513;-91
2023/01/20 09:16:16;;;;;;;7.40;2.33;;;0.80;99.90;;;;;;4990553;28;20030;-91
2023/01/20 09:18:43;;;;;;;8.00;1.97;;;0.90;99.90;;;;;;4997523;28;20022;-91
2023/01/20 09:21:09;;;;;;;5.03;2.03;;;0.90;99.90;;;;;;4999578;28;20029;-91
2023/01/20 09:23:37;;;;;;;6.40;2.40;;;0.90;99.90;;;;;;4998296;28;20030;-90
2023/01/20 09:26:05;;;;;;;7.00;2.23;;;0.90;99.90;;;;;;5001319;28;20570;-91
2023/01/20 09:28:31;;;;;;;6.20;2.40;;;0.90;99.90;;;;;;5000647;28;20026;-91
2023/01/20 09:31:04;;;;;;;7.33;2.33;;;0.90;99.90;;;;;;4993344;28;20035;-91
2023/01/20 09:33:34;;;;;;;4.87;2.40;;;0.90;99.90;;;;;;4996422;28;20451;-92
2023/01/20 09:36:01;;;;;;;6.70;2.70;;;0.90;99.90;;;;;;4985082;28;20033;-91
2023/01/20 09:44:41;;;;;;;;;;;0.90;99.90;;;;;;4997644;28;20099;-91
2023/01/20 09:47:34;;;;;;;4.03;1.63;;;0.90;99.90;;;;;;4986570;28;19937;-91
2023/01/20 09:53:35;;;;;;;5.47;2.20;;;0.90;99.90;;;;;;4979557;28;20509;-91
2023/01/20 09:56:17;;;;;;;5.83;2.33;;;0.90;99.90;;;;;;4987070;28;20065;-90
2023/01/20 09:58:58;;;;;;;7.50;2.40;;;0.90;99.90;;;;;;4995622;28;20027;-91
2023/01/20 10:01:44;;;;;;;5.13;2.07;;;0.90;99.90;;;;;;4994570;28;20108;-91
2023/01/20 10:04:22;;;;;;;4.33;2.30;;;1.00;99.90;;;;;;4991929;28;20073;-90
2023/01/20 10:06:53;;;;;;;7.13;2.40;;;1.00;99.90;;;;;;4988558;28;20115;-91
2023/01/20 10:09:36;;;;;;;4.37;2.10;;;1.20;99.90;;;;;;4987905;28;20034;-90
2023/01/20 10:12:26;;;;;;;4.90;2.47;;;1.30;99.90;;;;;;4983693;28;20433;-89
2023/01/20 10:15:06;;;;;;;5.97;2.27;;;1.30;99.90;;;;;;4987782;28;20030;-90
2023/01/20 10:17:50;;;;;;;4.43;2.10;;;1.50;99.90;;;;;;4993897;28;20450;-90
2023/01/20 10:20:35;;;;;;;6.10;2.50;;;1.60;99.90;;;;;;4983791;28;20121;-90
2023/01/20 10:23:28;;;;;;;5.93;2.63;;;1.70;99.90;;;;;;4990039;28;20490;-89
2023/01/20 10:26:24;;;;;;;7.03;2.17;;;1.80;99.90;;;;;;4975220;28;20026;-90
2023/01/20 10:29:02;;;;;;;6.77;2.90;;;1.80;99.90;;;;;;4989420;28;20414;-90
2023/01/20 10:31:37;;;;;;;7.43;2.47;;;1.90;99.90;;;;;;4989780;28;20045;-91
2023/01/20 10:34:15;;;;;;;6.70;2.57;;;1.90;99.90;;;;;;4986243;28;20096;-90
2023/01/20 10:36:45;;;;;;;5.80;2.03;;;1.80;99.90;;;;;;4983750;28;20096;-90
2023/01/20 10:39:31;;;;;;;5.10;2.30;;;1.80;99.90;;;;;;4992832;28;20026;-90
2023/01/20 10:45:21;;;;;;;5.03;2.17;;;1.90;99.90;;;;;;4935731;29;20028;-90
2023/01/20 10:48:16;;;;;;;5.13;2.30;;;1.90;99.90;;;;;;4981936;28;20030;-90
2023/01/20 10:51:21;;;;;;;7.47;2.20;;;1.90;99.90;;;;;;4990008;28;20033;-90
2023/01/20 10:54:02;;;;;;;5.23;2.00;;;1.90;99.90;;;;;;4995406;28;20487;-90
2023/01/20 10:56:35;;;;;;;5.80;1.97;;;1.90;99.90;;;;;;4997690;28;20033;-91
2023/01/20 10:59:07;;;;;;;6.03;2.43;;;2.00;99.90;;;;;;4996859;28;20034;-91
2023/01/20 11:01:34;;;;;;;8.57;2.25;;;2.00;99.90;;;;;;4984551;28;20030;-90
2023/01/20 11:04:02;;;;;;;6.27;2.40;;;2.10;99.90;;;;;;4995320;28;20054;-90
2023/01/20 11:06:28;;;;;;;6.53;2.40;;;2.20;99.90;;;;;;4994670;28;20022;-91
2023/01/20 11:08:55;;;;;;;4.80;2.00;;;2.40;99.90;;;;;;4981873;28;20092;-91
2023/01/20 11:11:23;;;;;;;5.57;2.53;;;2.20;99.90;;;;;;4999445;28;20153;-91
2023/01/20 11:13:51;;;;;;;6.00;1.83;;;2.20;99.90;;;;;;4999316;28;20050;-91
2023/01/20 11:16:23;;;;;;;8.33;2.13;;;2.00;99.90;;;;;;4995816;28;20038;-90
2023/01/20 11:19:03;;;;;;;5.97;2.13;;;1.90;99.90;;;;;;4979279;28;20042;-90
2023/01/20 11:21:32;;;;;;;6.60;1.63;;;1.80;99.90;;;;;;4986192;28;20033;-91
2023/01/20 11:23:58;;;;;;;4.13;1.63;;;1.70;99.90;;;;;;4999973;28;20023;-91
2023/01/20 11:26:24;;;;;;;4.50;1.80;;;1.70;99.90;;;;;;5000666;28;20024;-92
2023/01/20 11:28:59;;;;;;;6.50;2.33;;;1.70;99.90;;;;;;4999362;28;20090;-91
2023/01/20 11:31:41;;;;;;;3.63;1.70;;;1.60;99.90;;;;;;4995574;28;20097;-91
2023/01/20 11:34:26;;;;;;;6.90;1.80;;;1.70;99.90;;;;;;5005528;28;20114;-91
2023/01/20 11:37:04;;;;;;;6.97;2.13;;;1.80;99.90;;;;;;4996761;28;20090;-92
2023/01/20 11:39:48;;;;;;;5.70;1.80;;;1.90;99.90;;;;;;4995726;28;20121;-91
2023/01/20 11:42:26;;;;;;;6.00;1.80;;;2.00;99.90;;;;;;4984706;28;20042;-90
2023/01/20 11:45:22;;;;;;;;;;;;;;;;;;;;;
2023/01/20 11:58:57;;;;;;;4.57;1.73;;;3.90;99.90;;;;;;4981284;28;20031;-94
2023/01/20 13:17:01;;;;;;;1.47;0.73;;;2.70;99.90;;;;;;5024531;28;21816;-90
2023/01/20 13:19:35;;;;;;;0.93;0.30;;;2.60;99.90;;;;;;5016419;28;20489;-89
2023/01/20 13:22:10;;;;;;;1.40;0.50;;;2.20;99.90;;;;;;5020270;28;20057;-89
2023/01/20 13:24:37;;;;;;;5.57;0.60;;;2.80;99.90;;;;;;5006941;28;20033;-89
2023/01/20 13:27:03;;;;;;;1.70;0.60;;;2.40;99.90;;;;;;5004641;28;20120;-87
2023/01/20 13:29:54;;;;;;;1.97;0.70;;;2.30;99.90;;;;;;5005808;28;20098;-88
2023/01/20 13:32:39;;;;;;;1.33;0.50;;;3.00;99.90;;;;;;4978836;28;20042;-87
2023/01/20 13:35:16;;;;;;;1.87;0.80;;;2.20;99.90;;;;;;4992160;28;20424;-88
2023/01/20 13:37:56;;;;;;;1.80;0.70;;;2.10;99.90;;;;;;4984242;28;20030;-87
2023/01/20 13:40:37;;;;;;;2.13;0.73;;;2.10;99.90;;;;;;4985425;28;20038;-87
2023/01/20 13:43:24;;;;;;;1.53;0.60;;;2.20;99.90;;;;;;4986170;28;20033;-88
2023/01/20 13:46:10;;;;;;;2.63;0.60;;;2.00;99.90;;;;;;4985504;28;20041;-87
2023/01/20 13:48:37;;;;;;;6.73;0.90;;;2.20;99.90;;;;;;4966835;28;20106;-87
2023/01/20 13:51:15;;;;;;;2.50;0.90;;;2.20;99.90;;;;;;4997723;28;20014;-89
2023/01/20 13:53:42;;;;;;;3.27;0.90;;;2.60;99.90;;;;;;5024725;28;20034;-89
2023/01/20 13:56:34;;;;;;;3.30;1.07;;;2.10;99.90;;;;;;5007806;28;20034;-89
2023/01/20 14:27:33;;;;;;;;;;;;;;;;;;;;;
2023/01/20 17:00:55;;;;;;;3.43;1.20;;;0.00;99.90;;;;;;5005433;28;20058;-93
2023/01/20 17:03:28;;;;;;;3.60;1.00;;;1.30;99.90;;;;;;5012134;28;20074;-93
2023/01/20 17:18:05;;;;;;;5.63;1.10;;;-0.10;99.90;;;;;;5014504;28;20537;-90
2023/01/20 17:20:31;;;;;;;3.70;1.30;;;0.30;99.90;;;;;;5009552;28;20471;-91
2023/01/20 17:22:58;;;;;;;4.40;1.10;;;-0.70;99.90;;;;;;5015596;28;20022;-90
2023/01/20 17:25:26;;;;;;;2.37;0.80;;;-0.50;99.90;;;;;;5018568;28;20018;-90
2023/01/20 17:27:52;;;;;;;3.37;1.00;;;-0.20;99.90;;;;;;5007948;28;20026;-90
2023/01/20 17:30:20;;;;;;;5.23;1.30;;;-1.00;99.90;;;;;;5005921;28;20034;-91
2023/01/20 17:32:47;;;;;;;5.83;1.70;;;-0.20;99.90;;;;;;5019426;28;20045;-91
2023/01/20 17:35:26;;;;;;;6.63;1.63;;;-0.20;99.90;;;;;;5012684;28;20026;-91
2023/01/20 17:37:58;;;;;;;3.67;1.13;;;-0.10;99.90;;;;;;5032102;28;20089;-89
2023/01/20 17:40:26;;;;;;;5.93;1.80;;;-1.20;99.90;;;;;;5034434;28;20110;-90
2023/01/20 17:42:52;;;;;;;3.13;1.20;;;-0.10;99.90;;;;;;5023528;28;20053;-89
2023/01/20 17:45:19;;;;;;;4.87;1.27;;;-0.30;99.90;;;;;;5005432;28;20019;-90
2023/01/20 17:47:51;;;;;;;3.77;1.33;;;-0.30;99.90;;;;;;5014567;28;20600;-89
2023/01/20 17:50:17;;;;;;;;;;;0.70;99.90;;;;;;5012897;28;20053;-89
2023/01/20 17:53:09;;;;;;;3.03;1.30;;;-0.10;99.90;;;;;;5006900;28;19940;-91
2023/01/20 17:56:23;;;;;;;3.95;1.10;;;-0.70;99.90;;;;;;4954156;28;20039;-91
2023/01/20 18:08:41;;;;;;;;;;;-0.20;99.90;;;;;;5014508;28;19905;-90
2023/01/20 18:31:39;;;;;;;4.83;1.63;;;-0.50;99.90;;;;;;4971904;28;20487;-91
2023/01/20 18:34:08;;;;;;;5.03;1.90;;;-0.20;99.90;;;;;;4963010;28;20028;-91
2023/01/20 18:37:01;;;;;;;4.73;1.47;;;-0.20;99.90;;;;;;4961106;28;20023;-91
2023/01/20 18:39:42;;;;;;;3.42;1.52;;;-0.70;99.90;;;;;;4962071;28;20049;-91
2023/01/20 18:42:28;;;;;;;4.53;1.27;;;-0.50;99.90;;;;;;4963989;28;20062;-92
2023/01/20 18:44:56;;;;;;;4.13;1.57;;;-0.80;99.90;;;;;;4987731;28;20019;-93
2023/01/20 18:47:22;;;;;;;5.27;1.63;;;-0.80;99.90;;;;;;4961309;28;20015;-92
2023/01/20 18:50:19;;;;;;;4.47;1.50;;;-0.70;99.90;;;;;;4955739;28;20030;-92
2023/01/20 18:52:54;;;;;;;5.40;1.80;;;-0.80;99.90;;;;;;4963753;28;20109;-92
2023/01/20 18:55:23;;;;;;;6.07;1.77;;;-0.40;99.90;;;;;;4963570;28;20030;-90
2023/01/20 18:57:49;;;;;;;6.80;1.70;;;-0.80;99.90;;;;;;4965031;28;20027;-90
2023/01/20 19:00:15;;;;;;;2.77;1.40;;;-1.70;99.90;;;;;;4962000;28;20110;-91
2023/01/20 19:02:57;;;;;;;4.87;1.87;;;-0.10;99.90;;;;;;4969388;28;20488;-91
2023/01/20 19:05:35;;;;;;;5.45;1.85;;;-1.00;99.90;;;;;;4959689;28;20035;-90
2023/01/20 19:08:01;;;;;;;6.27;1.90;;;-1.00;99.90;;;;;;4968704;28;20440;-91
2023/01/20 19:10:30;;;;;;;5.63;1.80;;;-1.00;99.90;;;;;;4960069;28;20031;-91
2023/01/20 19:12:56;;;;;;;9.03;2.03;;;-1.00;99.90;;;;;;4971069;28;20110;-91
2023/01/20 19:15:22;;;;;;;5.13;1.57;;;-0.90;99.90;;;;;;4971382;28;20027;-91
2023/01/20 19:17:53;;;;;;;4.20;1.43;;;-0.90;99.90;;;;;;4975697;28;20106;-91
2023/01/20 19:20:18;;;;;;;5.43;1.80;;;-1.00;99.90;;;;;;4966634;28;20038;-91
2023/01/20 19:23:13;;;;;;;3.73;1.47;;;-0.70;99.90;;;;;;4966305;28;20031;-91
2023/01/20 19:25:59;;;;;;;8.87;2.10;;;-1.00;99.90;;;;;;4956700;28;20039;-92
2023/01/20 19:28:25;;;;;;;5.20;2.07;;;-1.00;99.90;;;;;;4962458;28;20035;-91
2023/01/20 19:30:57;;;;;;;8.03;2.80;;;-0.50;99.90;;;;;;4962556;28;20035;-92
2023/01/20 19:33:29;;;;;;;5.72;1.95;;;-1.00;99.90;;;;;;4975689;28;20220;-92
2023/01/20 19:36:01;;;;;;;7.72;2.50;;;-0.50;99.90;;;;;;4965280;28;20031;-90
2023/01/20 19:38:36;;;;;;;5.20;1.97;;;-1.10;99.90;;;;;;4968799;28;20024;-91
2023/01/20 20:38:41;;;;;;;6.20;1.90;;;-1.40;99.90;;;;;;619436;26;21128;-89
2023/01/20 20:41:56;;;;;;;;;;;;;;;;;;;;;
2023/01/20 20:44:27;;;;;;;8.07;2.33;;;-1.40;99.90;;;;;;4969993;28;20031;-90
2023/01/20 20:54:58;;;;;;;6.00;2.17;;;-1.50;99.90;;;;;;4897624;29;20054;-89
2023/01/20 21:04:52;;;;;;;6.67;3.07;;;-1.90;99.90;;;;;;4860218;29;20569;-88
2023/01/20 21:07:21;;;;;;;8.57;2.97;;;-1.40;99.90;;;;;;4927515;29;20027;-89
2023/01/20 21:09:55;;;;;;;9.10;3.10;;;-1.30;99.90;;;;;;4953601;28;20042;-90
2023/01/20 21:12:31;;;;;;;4.63;2.10;;;-0.60;99.90;;;;;;4991603;28;20027;-91
2023/01/20 21:14:57;;;;;;;6.97;3.03;;;-1.50;99.90;;;;;;4974106;28;20088;-91
2023/01/20 21:17:25;;;;;;;5.43;2.40;;;-1.50;99.90;;;;;;4965914;28;20303;-90
2023/01/20 21:19:53;;;;;;;8.07;2.80;;;-1.50;99.90;;;;;;4974643;28;20027;-89
2023/01/20 21:22:22;;;;;;;8.47;3.00;;;-1.50;99.90;;;;;;4973228;28;20038;-90
2023/01/20 21:24:55;;;;;;;8.17;2.30;;;-1.00;99.90;;;;;;4967020;28;20024;-90
2023/01/20 21:27:21;;;;;;;6.57;2.37;;;-1.40;99.90;;;;;;4972984;28;20027;-90
2023/01/20 21:29:47;;;;;;;6.00;2.27;;;-1.40;99.90;;;;;;4975010;28;20019;-90
2023/01/20 21:32:14;;;;;;;4.70;2.00;;;-1.40;99.90;;;;;;4972167;28;20145;-90
2023/01/20 21:34:40;;;;;;;4.63;1.93;;;-1.40;99.90;;;;;;4974010;28;20098;-90
2023/01/20 21:37:07;;;;;;;6.17;2.20;;;-1.40;99.90;;;;;;4976663;28;20062;-90
2023/01/20 21:39:35;;;;;;;7.20;2.67;;;-1.00;99.90;;;;;;4974284;28;20030;-90
2023/01/20 21:42:07;;;;;;;7.77;2.20;;;-1.30;99.90;;;;;;4972837;28;20150;-90
2023/01/20 21:44:41;;;;;;;7.13;2.73;;;-1.40;99.90;;;;;;4975025;28;20062;-90
2023/01/20 21:47:10;;;;;;;6.20;1.93;;;-1.40;99.90;;;;;;4973955;28;20019;-90
2023/01/20 21:52:45;;;;;;;4.53;1.90;;;-1.40;99.90;;;;;;4976727;28;20100;-90
2023/01/20 21:55:18;;;;;;;6.57;2.20;;;-0.80;99.90;;;;;;4996625;28;20023;-89
2023/01/20 21:57:55;;;;;;;8.90;2.23;;;-1.40;99.90;;;;;;4989383;28;20030;-88
2023/01/20 22:00:21;;;;;;;6.63;2.27;;;-1.30;99.90;;;;;;4985855;28;20027;-91
2023/01/20 22:02:47;;;;;;;5.53;1.73;;;-1.40;99.90;;;;;;4979034;28;20026;-90
2023/01/20 22:05:14;;;;;;;7.97;2.67;;;-1.30;99.90;;;;;;4976002;28;20042;-90
2023/01/20 22:07:46;;;;;;;8.27;2.43;;;-1.40;99.90;;;;;;4973750;28;20033;-90
2023/01/20 22:10:12;;;;;;;7.77;2.63;;;-1.40;99.90;;;;;;4975848;28;20019;-91
2023/01/20 22:12:40;;;;;;;6.13;2.43;;;-1.20;99.90;;;;;;4975825;28;20027;-91
2023/01/20 22:15:06;;;;;;;4.57;1.97;;;-1.40;99.90;;;;;;4977878;28;20058;-91
2023/01/20 22:17:33;;;;;;;8.03;2.20;;;-1.50;99.90;;;;;;4977413;28;20031;-91
2023/01/20 22:20:00;;;;;;;8.63;2.43;;;-1.50;99.90;;;;;;4975367;28;20026;-91
2023/01/20 22:22:29;;;;;;;7.43;2.17;;;-1.20;99.90;;;;;;4972051;28;20045;-90
2023/01/20 22:24:55;;;;;;;5.20;2.00;;;-0.60;99.90;;;;;;4977643;28;20022;-89
2023/01/20 22:27:21;;;;;;;8.03;2.27;;;-0.60;99.90;;;;;;4974580;28;20031;-90
2023/01/20 22:29:50;;;;;;;10.60;3.40;;;-1.50;99.90;;;;;;4977106;28;20034;-92
2023/01/20 22:32:15;;;;;;;6.90;2.80;;;-1.60;99.90;;;;;;4974619;28;20057;-90
2023/01/20 22:34:41;;;;;;;9.07;3.00;;;-1.60;99.90;;;;;;4975554;28;20475;-89
2023/01/20 22:37:07;;;;;;;7.27;2.20;;;-1.60;99.90;;;;;;4979318;28;20058;-90
2023/01/20 22:39:35;;;;;;;7.67;2.57;;;-1.70;99.90;;;;;;4974508;28;20510;-90
2023/01/20 22:42:01;;;;;;;7.67;2.30;;;-1.60;99.90;;;;;;4976620;28;20030;-91
2023/01/20 22:44:27;;;;;;;6.47;2.30;;;-1.60;99.90;;;;;;4993661;28;20553;-89
2023/01/20 22:46:53;;;;;;;4.50;2.23;;;-1.60;99.90;;;;;;4979277;28;20722;-91
2023/01/20 22:49:18;;;;;;;5.83;1.97;;;-1.70;99.90;;;;;;4980281;28;20062;-91
2023/01/20 22:51:45;;;;;;;8.40;2.93;;;-1.50;99.90;;;;;;4977724;28;20019;-91
2023/01/20 22:54:11;;;;;;;3.90;2.00;;;-2.20;99.90;;;;;;4978171;28;20026;-91
2023/01/20 22:56:39;;;;;;;8.83;3.00;;;-1.70;99.90;;;;;;4971581;28;20034;-90
2023/01/20 22:59:11;;;;;;;6.90;2.37;;;-1.70;99.90;;;;;;4979136;28;20541;-91
2023/01/20 23:01:42;;;;;;;7.10;2.83;;;-1.70;99.90;;;;;;4977347;28;20101;-91
2023/01/20 23:04:09;;;;;;;6.47;2.83;;;-1.70;99.90;;;;;;4979518;28;20101;-91
2023/01/20 23:06:50;;;;;;;5.57;3.10;;;-1.80;99.90;;;;;;4979896;28;20018;-90
2023/01/20 23:09:16;;;;;;;7.03;2.50;;;-2.00;99.90;;;;;;4996141;28;20095;-91
2023/01/20 23:11:44;;;;;;;8.87;2.20;;;-2.00;99.90;;;;;;4994218;28;20046;-90
2023/01/20 23:14:57;;;;;;;9.87;3.40;;;-1.20;99.90;;;;;;4982622;28;20026;-92
2023/01/20 23:17:06;;;;;;;7.50;2.90;;;-1.80;99.90;;;;;;4980010;28;20062;-92
2023/01/20 23:19:32;;;;;;;8.17;2.90;;;-1.90;99.90;;;;;;4978638;28;20062;-92